Redwater, Texas
Current Conditions -  °F | °C
As of 8:53 AM on Wednesday 26 Nov 2014 (Local Time) from KTXK Reporting Station
Clear Clear  
Wind Chill: 42°   Ceiling: Unl
Heat Index: 47°   Visibility: 10mi
Dew Point: 33°   Wind: 10mph
Humidity: 59%   Direction: 220°SW
Pressure: 30.07"   Gusts: NA
Location:  33.36°N, 94.25°W
Report Text: KTXK 261453Z 22009KT 10SM CLR 08/01 A3007 RMK AO2 SLP182 T00830006 53001
Loading
Personal Weather Stations






























Interactive Weather Map New forecast layout! Learn more

10-Day Weather Forecast

Advertisements
Track Severe Weather on mobile